Terminal Aerodrome Forecast
Issued by NWS

Home | Current Version | Previous Version | Text Only | Print | Product List | Glossary On
Versions: 1 2 3 4 5 6 7 8 9 10 11 12 13 14 15 16 17
843
FTUS45 KTFX 231120
TAFLWT
TAF
KLWT 231120Z 2312/2412 22020KT P6SM BKN070 BKN150
     FM231800 24025G32KT P6SM BKN040 BKN070
     FM240500 27025G32KT P6SM -RA SCT005 OVC030
     FM240900 28017G25KT P6SM SCT030 BKN060=

USA.gov is the U.S. government's official web portal to all federal, state and local government web resources and services.